sensor_id;sensor_type;location;lat;lon;timestamp;P1;durP1;ratioP1;P2;durP2;ratioP2
38123;SDS011;23934;47.998;9.832;2022-10-18T00:00:30;18.23;;;7.05;;
38123;SDS011;23934;47.998;9.832;2022-10-18T00:02:56;16.73;;;7.93;;
38123;SDS011;23934;47.998;9.832;2022-10-18T00:05:22;16.25;;;7.32;;
38123;SDS011;23934;47.998;9.832;2022-10-18T00:07:48;16.90;;;6.47;;
38123;SDS011;23934;47.998;9.832;2022-10-18T00:10:14;13.73;;;6.70;;
38123;SDS011;23934;47.998;9.832;2022-10-18T00:12:40;13.23;;;6.20;;
38123;SDS011;23934;47.998;9.832;2022-10-18T00:15:06;12.38;;;6.53;;
38123;SDS011;23934;47.998;9.832;2022-10-18T00:17:36;23.55;;;6.68;;
38123;SDS011;23934;47.998;9.832;2022-10-18T00:20:02;17.98;;;6.80;;
38123;SDS011;23934;47.998;9.832;2022-10-18T00:22:28;19.60;;;7.22;;
38123;SDS011;23934;47.998;9.832;2022-10-18T00:24:54;25.42;;;8.07;;
38123;SDS011;23934;47.998;9.832;2022-10-18T00:27:20;27.92;;;8.13;;
38123;SDS011;23934;47.998;9.832;2022-10-18T00:29:46;21.55;;;8.75;;
38123;SDS011;23934;47.998;9.832;2022-10-18T00:32:12;18.40;;;7.40;;
38123;SDS011;23934;47.998;9.832;2022-10-18T00:34:38;22.80;;;8.77;;
38123;SDS011;23934;47.998;9.832;2022-10-18T00:37:04;22.15;;;8.40;;
38123;SDS011;23934;47.998;9.832;2022-10-18T00:39:30;31.23;;;8.40;;
38123;SDS011;23934;47.998;9.832;2022-10-18T00:41:57;25.30;;;9.95;;
38123;SDS011;23934;47.998;9.832;2022-10-18T00:46:49;23.90;;;10.23;;
38123;SDS011;23934;47.998;9.832;2022-10-18T00:49:35;23.48;;;9.13;;
38123;SDS011;23934;47.998;9.832;2022-10-18T00:52:09;22.73;;;8.68;;
38123;SDS011;23934;47.998;9.832;2022-10-18T00:54:37;29.95;;;9.82;;
38123;SDS011;23934;47.998;9.832;2022-10-18T00:57:04;31.95;;;10.65;;
38123;SDS011;23934;47.998;9.832;2022-10-18T00:59:30;30.58;;;9.40;;
38123;SDS011;23934;47.998;9.832;2022-10-18T01:01:56;27.20;;;9.43;;
38123;SDS011;23934;47.998;9.832;2022-10-18T01:04:22;19.80;;;8.57;;
38123;SDS011;23934;47.998;9.832;2022-10-18T01:12:23;28.73;;;9.65;;
38123;SDS011;23934;47.998;9.832;2022-10-18T01:14:58;42.65;;;11.55;;
38123;SDS011;23934;47.998;9.832;2022-10-18T01:22:44;28.45;;;11.15;;
38123;SDS011;23934;47.998;9.832;2022-10-18T01:27:56;34.40;;;11.35;;
38123;SDS011;23934;47.998;9.832;2022-10-18T01:30:35;30.70;;;11.70;;
38123;SDS011;23934;47.998;9.832;2022-10-18T01:35:42;32.83;;;11.70;;
38123;SDS011;23934;47.998;9.832;2022-10-18T01:38:10;38.63;;;12.82;;
38123;SDS011;23934;47.998;9.832;2022-10-18T01:40:38;37.30;;;12.75;;
38123;SDS011;23934;47.998;9.832;2022-10-18T01:43:06;34.05;;;11.75;;
38123;SDS011;23934;47.998;9.832;2022-10-18T01:45:33;33.60;;;12.25;;
38123;SDS011;23934;47.998;9.832;2022-10-18T01:47:59;29.13;;;10.35;;
38123;SDS011;23934;47.998;9.832;2022-10-18T01:50:27;32.40;;;12.52;;
38123;SDS011;23934;47.998;9.832;2022-10-18T01:52:54;40.70;;;12.55;;
38123;SDS011;23934;47.998;9.832;2022-10-18T01:55:21;34.35;;;12.93;;
38123;SDS011;23934;47.998;9.832;2022-10-18T02:00:18;39.08;;;14.00;;
38123;SDS011;23934;47.998;9.832;2022-10-18T02:02:49;27.77;;;12.32;;
38123;SDS011;23934;47.998;9.832;2022-10-18T02:12:43;34.08;;;11.63;;
38123;SDS011;23934;47.998;9.832;2022-10-18T02:15:11;33.17;;;13.82;;
38123;SDS011;23934;47.998;9.832;2022-10-18T02:17:38;29.65;;;12.15;;
38123;SDS011;23934;47.998;9.832;2022-10-18T02:20:05;43.25;;;17.83;;
38123;SDS011;23934;47.998;9.832;2022-10-18T02:22:33;36.03;;;12.38;;
38123;SDS011;23934;47.998;9.832;2022-10-18T02:25:01;28.95;;;12.40;;
38123;SDS011;23934;47.998;9.832;2022-10-18T02:27:27;36.45;;;16.38;;
38123;SDS011;23934;47.998;9.832;2022-10-18T02:29:54;37.60;;;15.15;;
38123;SDS011;23934;47.998;9.832;2022-10-18T02:32:25;44.45;;;16.63;;
38123;SDS011;23934;47.998;9.832;2022-10-18T02:34:57;33.58;;;14.30;;
38123;SDS011;23934;47.998;9.832;2022-10-18T02:37:29;41.53;;;12.88;;
38123;SDS011;23934;47.998;9.832;2022-10-18T02:39:57;24.70;;;9.77;;
38123;SDS011;23934;47.998;9.832;2022-10-18T02:42:23;19.25;;;8.80;;
38123;SDS011;23934;47.998;9.832;2022-10-18T02:44:49;25.95;;;7.65;;
38123;SDS011;23934;47.998;9.832;2022-10-18T02:47:15;21.90;;;8.50;;
38123;SDS011;23934;47.998;9.832;2022-10-18T02:49:40;19.77;;;9.00;;
38123;SDS011;23934;47.998;9.832;2022-10-18T02:52:06;20.80;;;9.88;;
38123;SDS011;23934;47.998;9.832;2022-10-18T02:54:32;23.35;;;10.25;;
38123;SDS011;23934;47.998;9.832;2022-10-18T02:56:58;30.13;;;10.50;;
38123;SDS011;23934;47.998;9.832;2022-10-18T02:59:24;26.48;;;10.25;;
38123;SDS011;23934;47.998;9.832;2022-10-18T03:01:50;33.00;;;11.43;;
38123;SDS011;23934;47.998;9.832;2022-10-18T03:04:16;26.15;;;10.80;;
38123;SDS011;23934;47.998;9.832;2022-10-18T03:06:42;33.40;;;12.45;;
38123;SDS011;23934;47.998;9.832;2022-10-18T03:09:08;28.35;;;11.25;;
38123;SDS011;23934;47.998;9.832;2022-10-18T03:11:34;33.90;;;12.45;;
38123;SDS011;23934;47.998;9.832;2022-10-18T03:14:00;34.90;;;12.25;;
38123;SDS011;23934;47.998;9.832;2022-10-18T03:16:26;37.20;;;12.63;;
38123;SDS011;23934;47.998;9.832;2022-10-18T03:18:52;32.90;;;12.95;;
38123;SDS011;23934;47.998;9.832;2022-10-18T03:21:18;37.05;;;13.98;;
38123;SDS011;23934;47.998;9.832;2022-10-18T03:23:44;44.10;;;13.77;;
38123;SDS011;23934;47.998;9.832;2022-10-18T03:26:10;34.80;;;14.02;;
38123;SDS011;23934;47.998;9.832;2022-10-18T03:28:36;39.75;;;14.10;;
38123;SDS011;23934;47.998;9.832;2022-10-18T03:31:03;32.83;;;13.15;;
38123;SDS011;23934;47.998;9.832;2022-10-18T03:33:29;153.15;;;52.28;;
38123;SDS011;23934;47.998;9.832;2022-10-18T03:35:55;64.65;;;20.27;;
38123;SDS011;23934;47.998;9.832;2022-10-18T03:38:21;42.47;;;16.15;;
38123;SDS011;23934;47.998;9.832;2022-10-18T03:40:47;42.65;;;16.90;;
38123;SDS011;23934;47.998;9.832;2022-10-18T03:43:13;39.95;;;13.35;;
38123;SDS011;23934;47.998;9.832;2022-10-18T03:45:39;28.25;;;11.48;;
38123;SDS011;23934;47.998;9.832;2022-10-18T03:48:05;36.70;;;12.80;;
38123;SDS011;23934;47.998;9.832;2022-10-18T03:50:31;28.55;;;12.57;;
38123;SDS011;23934;47.998;9.832;2022-10-18T03:52:57;30.38;;;11.77;;
38123;SDS011;23934;47.998;9.832;2022-10-18T03:55:23;39.72;;;13.40;;
38123;SDS011;23934;47.998;9.832;2022-10-18T03:57:49;35.80;;;13.45;;
38123;SDS011;23934;47.998;9.832;2022-10-18T04:00:15;30.90;;;12.07;;
38123;SDS011;23934;47.998;9.832;2022-10-18T04:02:41;31.92;;;12.85;;
38123;SDS011;23934;47.998;9.832;2022-10-18T04:05:07;47.33;;;12.80;;
38123;SDS011;23934;47.998;9.832;2022-10-18T04:07:34;39.63;;;12.82;;
38123;SDS011;23934;47.998;9.832;2022-10-18T04:10:00;31.00;;;12.90;;
38123;SDS011;23934;47.998;9.832;2022-10-18T04:12:26;40.95;;;13.10;;
38123;SDS011;23934;47.998;9.832;2022-10-18T04:14:52;31.23;;;12.45;;
38123;SDS011;23934;47.998;9.832;2022-10-18T04:17:18;32.15;;;11.77;;
38123;SDS011;23934;47.998;9.832;2022-10-18T04:19:44;27.80;;;11.82;;
38123;SDS011;23934;47.998;9.832;2022-10-18T04:22:10;28.30;;;11.35;;
38123;SDS011;23934;47.998;9.832;2022-10-18T04:24:36;27.80;;;11.30;;
38123;SDS011;23934;47.998;9.832;2022-10-18T04:27:05;34.13;;;11.68;;
38123;SDS011;23934;47.998;9.832;2022-10-18T04:29:32;28.02;;;12.10;;
38123;SDS011;23934;47.998;9.832;2022-10-18T04:31:58;35.53;;;11.98;;
38123;SDS011;23934;47.998;9.832;2022-10-18T04:34:24;36.97;;;12.63;;
38123;SDS011;23934;47.998;9.832;2022-10-18T04:36:50;35.10;;;12.43;;
38123;SDS011;23934;47.998;9.832;2022-10-18T04:39:16;32.78;;;12.32;;
38123;SDS011;23934;47.998;9.832;2022-10-18T04:41:42;34.97;;;13.65;;
38123;SDS011;23934;47.998;9.832;2022-10-18T04:44:08;33.40;;;11.23;;
38123;SDS011;23934;47.998;9.832;2022-10-18T04:46:34;32.13;;;12.07;;
38123;SDS011;23934;47.998;9.832;2022-10-18T04:49:00;27.75;;;11.60;;
38123;SDS011;23934;47.998;9.832;2022-10-18T04:51:27;31.15;;;13.23;;
38123;SDS011;23934;47.998;9.832;2022-10-18T04:53:53;34.45;;;11.25;;
38123;SDS011;23934;47.998;9.832;2022-10-18T04:56:20;36.90;;;11.38;;
38123;SDS011;23934;47.998;9.832;2022-10-18T04:58:46;35.70;;;12.38;;
38123;SDS011;23934;47.998;9.832;2022-10-18T05:01:12;32.30;;;11.85;;
38123;SDS011;23934;47.998;9.832;2022-10-18T05:03:38;32.13;;;12.35;;
38123;SDS011;23934;47.998;9.832;2022-10-18T05:06:04;37.15;;;13.05;;
38123;SDS011;23934;47.998;9.832;2022-10-18T05:08:31;30.77;;;12.25;;
38123;SDS011;23934;47.998;9.832;2022-10-18T05:10:57;34.30;;;12.00;;
38123;SDS011;23934;47.998;9.832;2022-10-18T05:13:24;37.33;;;12.63;;
38123;SDS011;23934;47.998;9.832;2022-10-18T05:15:50;35.20;;;13.38;;
38123;SDS011;23934;47.998;9.832;2022-10-18T05:18:16;32.83;;;13.75;;
38123;SDS011;23934;47.998;9.832;2022-10-18T05:20:42;33.38;;;13.15;;
38123;SDS011;23934;47.998;9.832;2022-10-18T05:23:08;38.90;;;12.73;;
38123;SDS011;23934;47.998;9.832;2022-10-18T05:25:36;33.50;;;12.13;;
38123;SDS011;23934;47.998;9.832;2022-10-18T05:28:03;36.08;;;14.18;;
38123;SDS011;23934;47.998;9.832;2022-10-18T05:30:29;25.90;;;11.75;;
38123;SDS011;23934;47.998;9.832;2022-10-18T05:32:55;35.78;;;12.20;;
38123;SDS011;23934;47.998;9.832;2022-10-18T05:35:21;34.17;;;13.48;;
38123;SDS011;23934;47.998;9.832;2022-10-18T05:37:47;40.60;;;12.02;;
38123;SDS011;23934;47.998;9.832;2022-10-18T05:40:13;37.08;;;13.75;;
38123;SDS011;23934;47.998;9.832;2022-10-18T05:42:39;27.83;;;12.45;;
38123;SDS011;23934;47.998;9.832;2022-10-18T05:45:05;41.17;;;12.88;;
38123;SDS011;23934;47.998;9.832;2022-10-18T05:47:31;37.63;;;14.05;;
38123;SDS011;23934;47.998;9.832;2022-10-18T05:49:57;37.47;;;13.90;;
38123;SDS011;23934;47.998;9.832;2022-10-18T05:52:23;37.17;;;14.15;;
38123;SDS011;23934;47.998;9.832;2022-10-18T05:54:49;46.03;;;15.25;;
38123;SDS011;23934;47.998;9.832;2022-10-18T05:57:15;39.17;;;14.38;;
38123;SDS011;23934;47.998;9.832;2022-10-18T05:59:41;35.30;;;14.05;;
38123;SDS011;23934;47.998;9.832;2022-10-18T06:02:08;31.95;;;13.73;;
38123;SDS011;23934;47.998;9.832;2022-10-18T06:04:34;43.60;;;14.63;;
38123;SDS011;23934;47.998;9.832;2022-10-18T06:07:00;39.22;;;14.48;;
38123;SDS011;23934;47.998;9.832;2022-10-18T06:09:26;46.05;;;14.93;;
38123;SDS011;23934;47.998;9.832;2022-10-18T06:11:54;36.58;;;14.38;;
38123;SDS011;23934;47.998;9.832;2022-10-18T06:14:21;35.03;;;13.98;;
38123;SDS011;23934;47.998;9.832;2022-10-18T06:16:47;41.95;;;13.43;;
38123;SDS011;23934;47.998;9.832;2022-10-18T06:19:14;35.00;;;14.02;;
38123;SDS011;23934;47.998;9.832;2022-10-18T06:21:41;34.63;;;13.10;;
38123;SDS011;23934;47.998;9.832;2022-10-18T06:24:07;32.50;;;12.85;;
38123;SDS011;23934;47.998;9.832;2022-10-18T06:26:33;36.20;;;11.63;;
38123;SDS011;23934;47.998;9.832;2022-10-18T06:28:59;31.60;;;11.30;;
38123;SDS011;23934;47.998;9.832;2022-10-18T06:31:25;28.15;;;10.93;;
38123;SDS011;23934;47.998;9.832;2022-10-18T06:33:51;24.70;;;10.35;;
38123;SDS011;23934;47.998;9.832;2022-10-18T06:36:18;33.75;;;11.55;;
38123;SDS011;23934;47.998;9.832;2022-10-18T06:38:46;30.13;;;10.95;;
38123;SDS011;23934;47.998;9.832;2022-10-18T06:41:12;27.58;;;10.43;;
38123;SDS011;23934;47.998;9.832;2022-10-18T06:43:38;30.27;;;11.95;;
38123;SDS011;23934;47.998;9.832;2022-10-18T06:46:04;31.08;;;11.38;;
38123;SDS011;23934;47.998;9.832;2022-10-18T06:48:31;35.88;;;11.77;;
38123;SDS011;23934;47.998;9.832;2022-10-18T06:50:58;26.58;;;11.23;;
38123;SDS011;23934;47.998;9.832;2022-10-18T06:53:25;28.20;;;11.93;;
38123;SDS011;23934;47.998;9.832;2022-10-18T06:55:52;27.67;;;11.02;;
38123;SDS011;23934;47.998;9.832;2022-10-18T06:58:18;30.80;;;11.40;;
38123;SDS011;23934;47.998;9.832;2022-10-18T07:00:44;37.45;;;15.23;;
38123;SDS011;23934;47.998;9.832;2022-10-18T07:03:10;22.10;;;10.38;;
38123;SDS011;23934;47.998;9.832;2022-10-18T07:05:37;29.52;;;9.85;;
38123;SDS011;23934;47.998;9.832;2022-10-18T07:08:02;26.00;;;9.98;;
38123;SDS011;23934;47.998;9.832;2022-10-18T07:10:28;27.27;;;10.57;;
38123;SDS011;23934;47.998;9.832;2022-10-18T07:12:54;24.38;;;10.73;;
38123;SDS011;23934;47.998;9.832;2022-10-18T07:15:20;27.08;;;10.18;;
38123;SDS011;23934;47.998;9.832;2022-10-18T07:17:48;26.92;;;11.27;;
38123;SDS011;23934;47.998;9.832;2022-10-18T07:20:14;23.80;;;10.82;;
38123;SDS011;23934;47.998;9.832;2022-10-18T07:22:40;25.48;;;11.30;;
38123;SDS011;23934;47.998;9.832;2022-10-18T07:25:06;28.23;;;9.75;;
38123;SDS011;23934;47.998;9.832;2022-10-18T07:27:36;27.45;;;9.85;;
38123;SDS011;23934;47.998;9.832;2022-10-18T07:30:03;26.63;;;11.02;;
38123;SDS011;23934;47.998;9.832;2022-10-18T07:32:29;23.83;;;10.75;;
38123;SDS011;23934;47.998;9.832;2022-10-18T07:34:55;25.13;;;10.52;;
38123;SDS011;23934;47.998;9.832;2022-10-18T07:37:21;23.60;;;11.57;;
38123;SDS011;23934;47.998;9.832;2022-10-18T07:39:47;25.20;;;10.93;;
38123;SDS011;23934;47.998;9.832;2022-10-18T07:42:13;26.73;;;11.25;;
38123;SDS011;23934;47.998;9.832;2022-10-18T07:44:39;23.13;;;10.43;;
38123;SDS011;23934;47.998;9.832;2022-10-18T07:47:05;20.15;;;8.90;;
38123;SDS011;23934;47.998;9.832;2022-10-18T07:49:31;19.05;;;8.82;;
38123;SDS011;23934;47.998;9.832;2022-10-18T07:51:57;18.00;;;7.63;;
38123;SDS011;23934;47.998;9.832;2022-10-18T07:54:23;18.42;;;7.50;;
38123;SDS011;23934;47.998;9.832;2022-10-18T07:56:49;17.92;;;6.68;;
38123;SDS011;23934;47.998;9.832;2022-10-18T07:59:15;15.20;;;6.28;;
38123;SDS011;23934;47.998;9.832;2022-10-18T08:01:41;14.43;;;6.47;;
38123;SDS011;23934;47.998;9.832;2022-10-18T08:04:07;10.70;;;5.07;;
38123;SDS011;23934;47.998;9.832;2022-10-18T08:06:33;10.88;;;4.88;;
38123;SDS011;23934;47.998;9.832;2022-10-18T08:08:59;8.82;;;5.00;;
38123;SDS011;23934;47.998;9.832;2022-10-18T08:11:25;9.77;;;5.65;;
38123;SDS011;23934;47.998;9.832;2022-10-18T08:13:51;8.00;;;4.43;;
38123;SDS011;23934;47.998;9.832;2022-10-18T08:16:21;9.23;;;4.60;;
38123;SDS011;23934;47.998;9.832;2022-10-18T08:18:47;12.35;;;5.43;;
38123;SDS011;23934;47.998;9.832;2022-10-18T08:21:13;9.15;;;4.68;;
38123;SDS011;23934;47.998;9.832;2022-10-18T08:23:39;10.38;;;5.32;;
38123;SDS011;23934;47.998;9.832;2022-10-18T08:26:08;13.57;;;5.75;;
38123;SDS011;23934;47.998;9.832;2022-10-18T08:28:34;10.13;;;4.63;;
38123;SDS011;23934;47.998;9.832;2022-10-18T08:31:04;9.38;;;4.55;;
38123;SDS011;23934;47.998;9.832;2022-10-18T08:33:31;8.65;;;4.50;;
38123;SDS011;23934;47.998;9.832;2022-10-18T08:35:59;14.88;;;4.75;;
38123;SDS011;23934;47.998;9.832;2022-10-18T08:38:28;11.43;;;5.45;;
38123;SDS011;23934;47.998;9.832;2022-10-18T08:40:55;11.05;;;4.60;;
38123;SDS011;23934;47.998;9.832;2022-10-18T08:43:23;8.82;;;4.43;;
38123;SDS011;23934;47.998;9.832;2022-10-18T08:45:51;8.88;;;4.65;;
38123;SDS011;23934;47.998;9.832;2022-10-18T08:48:19;11.77;;;4.43;;
38123;SDS011;23934;47.998;9.832;2022-10-18T08:50:45;13.70;;;4.55;;
38123;SDS011;23934;47.998;9.832;2022-10-18T08:53:21;10.27;;;4.38;;
38123;SDS011;23934;47.998;9.832;2022-10-18T08:55:49;7.53;;;4.45;;
38123;SDS011;23934;47.998;9.832;2022-10-18T09:00:48;8.20;;;4.45;;
38123;SDS011;23934;47.998;9.832;2022-10-18T09:05:52;13.07;;;4.78;;
38123;SDS011;23934;47.998;9.832;2022-10-18T09:21:19;11.52;;;4.15;;
38123;SDS011;23934;47.998;9.832;2022-10-18T09:24:10;7.75;;;3.85;;
38123;SDS011;23934;47.998;9.832;2022-10-18T09:26:37;10.48;;;4.50;;
38123;SDS011;23934;47.998;9.832;2022-10-18T09:36:49;15.23;;;4.95;;
38123;SDS011;23934;47.998;9.832;2022-10-18T09:39:18;14.98;;;4.63;;
38123;SDS011;23934;47.998;9.832;2022-10-18T09:44:22;11.63;;;5.03;;
38123;SDS011;23934;47.998;9.832;2022-10-18T09:46:54;9.60;;;4.38;;
38123;SDS011;23934;47.998;9.832;2022-10-18T09:51:47;11.27;;;4.85;;
38123;SDS011;23934;47.998;9.832;2022-10-18T09:54:18;18.85;;;5.03;;
38123;SDS011;23934;47.998;9.832;2022-10-18T09:56:53;8.93;;;4.38;;
38123;SDS011;23934;47.998;9.832;2022-10-18T09:59:39;12.48;;;5.45;;
38123;SDS011;23934;47.998;9.832;2022-10-18T10:02:06;12.85;;;5.60;;
38123;SDS011;23934;47.998;9.832;2022-10-18T10:04:34;8.18;;;4.32;;
38123;SDS011;23934;47.998;9.832;2022-10-18T10:07:00;20.40;;;5.32;;
38123;SDS011;23934;47.998;9.832;2022-10-18T10:09:27;11.48;;;5.03;;
38123;SDS011;23934;47.998;9.832;2022-10-18T10:11:54;12.18;;;5.38;;
38123;SDS011;23934;47.998;9.832;2022-10-18T10:14:21;8.48;;;4.75;;
38123;SDS011;23934;47.998;9.832;2022-10-18T10:16:53;10.70;;;4.60;;
38123;SDS011;23934;47.998;9.832;2022-10-18T10:19:25;10.57;;;4.47;;
38123;SDS011;23934;47.998;9.832;2022-10-18T10:21:54;9.13;;;4.70;;
38123;SDS011;23934;47.998;9.832;2022-10-18T10:24:25;9.90;;;4.82;;
38123;SDS011;23934;47.998;9.832;2022-10-18T10:26:59;12.15;;;4.43;;
38123;SDS011;23934;47.998;9.832;2022-10-18T10:32:14;11.32;;;4.85;;
38123;SDS011;23934;47.998;9.832;2022-10-18T10:34:40;6.35;;;4.30;;
38123;SDS011;23934;47.998;9.832;2022-10-18T10:42:28;10.25;;;5.05;;
38123;SDS011;23934;47.998;9.832;2022-10-18T10:44:55;14.15;;;5.30;;
38123;SDS011;23934;47.998;9.832;2022-10-18T10:47:30;11.18;;;4.70;;
38123;SDS011;23934;47.998;9.832;2022-10-18T10:49:57;13.82;;;4.53;;
38123;SDS011;23934;47.998;9.832;2022-10-18T10:52:24;8.75;;;4.18;;
38123;SDS011;23934;47.998;9.832;2022-10-18T10:54:54;13.15;;;5.07;;
38123;SDS011;23934;47.998;9.832;2022-10-18T10:57:22;9.95;;;5.25;;
38123;SDS011;23934;47.998;9.832;2022-10-18T10:59:54;10.50;;;4.43;;
38123;SDS011;23934;47.998;9.832;2022-10-18T11:04:56;14.27;;;4.78;;
38123;SDS011;23934;47.998;9.832;2022-10-18T11:07:40;13.07;;;3.92;;
38123;SDS011;23934;47.998;9.832;2022-10-18T11:10:24;14.18;;;4.05;;
38123;SDS011;23934;47.998;9.832;2022-10-18T11:15:33;11.25;;;4.45;;
38123;SDS011;23934;47.998;9.832;2022-10-18T11:20:35;11.13;;;3.97;;
38123;SDS011;23934;47.998;9.832;2022-10-18T11:23:15;9.70;;;3.80;;
38123;SDS011;23934;47.998;9.832;2022-10-18T11:38:33;16.17;;;3.72;;
38123;SDS011;23934;47.998;9.832;2022-10-18T11:43:34;12.80;;;3.47;;
38123;SDS011;23934;47.998;9.832;2022-10-18T11:53:52;8.63;;;3.35;;
38123;SDS011;23934;47.998;9.832;2022-10-18T12:06:34;7.10;;;3.85;;
38123;SDS011;23934;47.998;9.832;2022-10-18T12:09:03;7.65;;;3.25;;
38123;SDS011;23934;47.998;9.832;2022-10-18T12:11:30;5.50;;;3.63;;
38123;SDS011;23934;47.998;9.832;2022-10-18T12:13:58;11.45;;;3.42;;
38123;SDS011;23934;47.998;9.832;2022-10-18T12:16:26;7.93;;;3.90;;
38123;SDS011;23934;47.998;9.832;2022-10-18T12:18:57;14.32;;;3.67;;
38123;SDS011;23934;47.998;9.832;2022-10-18T12:21:24;9.90;;;3.55;;
38123;SDS011;23934;47.998;9.832;2022-10-18T12:23:52;6.32;;;3.50;;
38123;SDS011;23934;47.998;9.832;2022-10-18T12:26:19;5.65;;;3.20;;
38123;SDS011;23934;47.998;9.832;2022-10-18T12:31:19;9.15;;;3.70;;
38123;SDS011;23934;47.998;9.832;2022-10-18T12:33:50;8.95;;;3.58;;
38123;SDS011;23934;47.998;9.832;2022-10-18T12:38:51;10.57;;;3.05;;
38123;SDS011;23934;47.998;9.832;2022-10-18T12:41:22;14.07;;;3.30;;
38123;SDS011;23934;47.998;9.832;2022-10-18T12:43:53;6.10;;;2.63;;
38123;SDS011;23934;47.998;9.832;2022-10-18T12:46:21;5.80;;;2.97;;
38123;SDS011;23934;47.998;9.832;2022-10-18T12:49:03;11.25;;;2.90;;
38123;SDS011;23934;47.998;9.832;2022-10-18T12:51:29;12.57;;;2.80;;
38123;SDS011;23934;47.998;9.832;2022-10-18T13:02:07;6.18;;;2.95;;
38123;SDS011;23934;47.998;9.832;2022-10-18T13:09:38;10.10;;;2.80;;
38123;SDS011;23934;47.998;9.832;2022-10-18T13:17:31;10.18;;;2.88;;
38123;SDS011;23934;47.998;9.832;2022-10-18T13:20:11;5.80;;;2.92;;
38123;SDS011;23934;47.998;9.832;2022-10-18T13:25:28;6.22;;;2.65;;
38123;SDS011;23934;47.998;9.832;2022-10-18T13:30:54;13.43;;;3.17;;
38123;SDS011;23934;47.998;9.832;2022-10-18T13:33:32;11.93;;;2.80;;
38123;SDS011;23934;47.998;9.832;2022-10-18T13:35:59;4.80;;;2.58;;
38123;SDS011;23934;47.998;9.832;2022-10-18T13:41:05;3.97;;;2.35;;
38123;SDS011;23934;47.998;9.832;2022-10-18T13:51:42;7.80;;;3.03;;
38123;SDS011;23934;47.998;9.832;2022-10-18T14:07:05;10.18;;;2.42;;
38123;SDS011;23934;47.998;9.832;2022-10-18T14:09:33;9.82;;;2.90;;
38123;SDS011;23934;47.998;9.832;2022-10-18T14:12:02;7.03;;;2.67;;
38123;SDS011;23934;47.998;9.832;2022-10-18T14:14:40;7.22;;;2.85;;
38123;SDS011;23934;47.998;9.832;2022-10-18T14:17:28;4.53;;;2.67;;
38123;SDS011;23934;47.998;9.832;2022-10-18T14:20:02;5.85;;;2.70;;
38123;SDS011;23934;47.998;9.832;2022-10-18T14:25:32;8.45;;;3.15;;
38123;SDS011;23934;47.998;9.832;2022-10-18T14:28:03;9.63;;;2.97;;
38123;SDS011;23934;47.998;9.832;2022-10-18T14:30:29;5.60;;;2.90;;
38123;SDS011;23934;47.998;9.832;2022-10-18T14:32:55;6.18;;;2.85;;
38123;SDS011;23934;47.998;9.832;2022-10-18T14:35:24;11.32;;;3.20;;
38123;SDS011;23934;47.998;9.832;2022-10-18T14:37:51;14.95;;;4.32;;
38123;SDS011;23934;47.998;9.832;2022-10-18T14:40:34;15.88;;;2.97;;
38123;SDS011;23934;47.998;9.832;2022-10-18T14:43:04;4.82;;;2.65;;
38123;SDS011;23934;47.998;9.832;2022-10-18T14:45:31;7.93;;;2.80;;
38123;SDS011;23934;47.998;9.832;2022-10-18T14:50:38;7.00;;;2.80;;
38123;SDS011;23934;47.998;9.832;2022-10-18T14:53:06;8.25;;;2.63;;
38123;SDS011;23934;47.998;9.832;2022-10-18T14:55:32;7.90;;;3.22;;
38123;SDS011;23934;47.998;9.832;2022-10-18T14:57:59;8.10;;;2.60;;
38123;SDS011;23934;47.998;9.832;2022-10-18T15:00:27;7.53;;;2.88;;
38123;SDS011;23934;47.998;9.832;2022-10-18T15:02:55;8.52;;;3.38;;
38123;SDS011;23934;47.998;9.832;2022-10-18T15:05:22;7.15;;;2.80;;
38123;SDS011;23934;47.998;9.832;2022-10-18T15:07:49;9.00;;;3.40;;
38123;SDS011;23934;47.998;9.832;2022-10-18T15:10:16;9.07;;;3.08;;
38123;SDS011;23934;47.998;9.832;2022-10-18T15:12:43;8.10;;;3.10;;
38123;SDS011;23934;47.998;9.832;2022-10-18T15:15:17;8.02;;;2.80;;
38123;SDS011;23934;47.998;9.832;2022-10-18T15:17:44;16.00;;;3.25;;
38123;SDS011;23934;47.998;9.832;2022-10-18T15:20:29;11.65;;;2.83;;
38123;SDS011;23934;47.998;9.832;2022-10-18T15:25:40;20.02;;;3.67;;
38123;SDS011;23934;47.998;9.832;2022-10-18T15:28:15;6.95;;;2.75;;
38123;SDS011;23934;47.998;9.832;2022-10-18T15:30:47;11.05;;;3.08;;
38123;SDS011;23934;47.998;9.832;2022-10-18T15:33:21;20.25;;;3.70;;
38123;SDS011;23934;47.998;9.832;2022-10-18T15:35:47;8.05;;;3.67;;
38123;SDS011;23934;47.998;9.832;2022-10-18T15:40:45;8.45;;;3.28;;
38123;SDS011;23934;47.998;9.832;2022-10-18T15:45:57;6.60;;;3.20;;
38123;SDS011;23934;47.998;9.832;2022-10-18T15:48:26;11.65;;;3.35;;
38123;SDS011;23934;47.998;9.832;2022-10-18T15:50:56;8.27;;;3.40;;
38123;SDS011;23934;47.998;9.832;2022-10-18T15:53:40;12.48;;;3.40;;
38123;SDS011;23934;47.998;9.832;2022-10-18T15:58:52;9.50;;;3.67;;
38123;SDS011;23934;47.998;9.832;2022-10-18T16:01:22;12.65;;;3.88;;
38123;SDS011;23934;47.998;9.832;2022-10-18T16:03:49;12.77;;;3.83;;
38123;SDS011;23934;47.998;9.832;2022-10-18T16:06:16;9.77;;;3.88;;
38123;SDS011;23934;47.998;9.832;2022-10-18T16:08:43;12.32;;;4.05;;
38123;SDS011;23934;47.998;9.832;2022-10-18T16:11:16;7.63;;;3.72;;
38123;SDS011;23934;47.998;9.832;2022-10-18T16:13:43;15.20;;;3.83;;
38123;SDS011;23934;47.998;9.832;2022-10-18T16:16:16;6.63;;;3.35;;
38123;SDS011;23934;47.998;9.832;2022-10-18T16:18:43;10.45;;;3.90;;
38123;SDS011;23934;47.998;9.832;2022-10-18T16:21:14;11.52;;;4.15;;
38123;SDS011;23934;47.998;9.832;2022-10-18T16:23:41;2.38;;;1.35;;
38123;SDS011;23934;47.998;9.832;2022-10-18T16:26:07;0.43;;;0.35;;
38123;SDS011;23934;47.998;9.832;2022-10-18T16:28:34;0.35;;;0.22;;
38123;SDS011;23934;47.998;9.832;2022-10-18T16:31:00;3.00;;;0.95;;
38123;SDS011;23934;47.998;9.832;2022-10-18T16:33:27;0.30;;;0.30;;
38123;SDS011;23934;47.998;9.832;2022-10-18T16:35:54;1.13;;;1.00;;
38123;SDS011;23934;47.998;9.832;2022-10-18T16:40:49;0.08;;;0.08;;
38123;SDS011;23934;47.998;9.832;2022-10-18T16:43:15;0.47;;;0.47;;
38123;SDS011;23934;47.998;9.832;2022-10-18T16:45:41;0.05;;;0.05;;
38123;SDS011;23934;47.998;9.832;2022-10-18T16:48:08;0.20;;;0.20;;
38123;SDS011;23934;47.998;9.832;2022-10-18T16:50:35;0.20;;;0.13;;
38123;SDS011;23934;47.998;9.832;2022-10-18T16:53:01;0.00;;;0.00;;
38123;SDS011;23934;47.998;9.832;2022-10-18T16:55:27;0.13;;;0.13;;
38123;SDS011;23934;47.998;9.832;2022-10-18T16:57:54;1.77;;;1.05;;
38123;SDS011;23934;47.998;9.832;2022-10-18T17:00:21;13.05;;;1.45;;
38123;SDS011;23934;47.998;9.832;2022-10-18T17:02:48;0.10;;;0.10;;
38123;SDS011;23934;47.998;9.832;2022-10-18T17:05:14;1.08;;;0.75;;
38123;SDS011;23934;47.998;9.832;2022-10-18T17:07:40;0.25;;;0.25;;
38123;SDS011;23934;47.998;9.832;2022-10-18T17:10:07;1.25;;;0.63;;
38123;SDS011;23934;47.998;9.832;2022-10-18T17:12:35;0.00;;;0.00;;
38123;SDS011;23934;47.998;9.832;2022-10-18T17:15:01;0.17;;;0.17;;
38123;SDS011;23934;47.998;9.832;2022-10-18T17:17:27;0.40;;;0.40;;
38123;SDS011;23934;47.998;9.832;2022-10-18T17:19:53;0.10;;;0.10;;
38123;SDS011;23934;47.998;9.832;2022-10-18T17:22:19;0.57;;;0.57;;
38123;SDS011;23934;47.998;9.832;2022-10-18T17:24:45;0.22;;;0.22;;
38123;SDS011;23934;47.998;9.832;2022-10-18T17:27:11;1.20;;;1.10;;
38123;SDS011;23934;47.998;9.832;2022-10-18T17:29:37;0.25;;;0.25;;
38123;SDS011;23934;47.998;9.832;2022-10-18T17:32:04;0.00;;;0.00;;
38123;SDS011;23934;47.998;9.832;2022-10-18T17:34:31;0.95;;;0.73;;
38123;SDS011;23934;47.998;9.832;2022-10-18T17:36:57;1.05;;;0.98;;